Time;durP1;ratioP1;P1;durP2;ratioP2;P2;SDS_P1;SDS_P2;PMS_P1;PMS_P2;Temp;Humidity;BMP_temperature;BMP_pressure;BME280_temperature;BME280_humidity;BME280_pressure;Samples;Min_cycle;Max_cycle;Signal;HPM_P1;HPM_P2
2021/08/17 00:01:38;;;;;;;8.85;1.85;;;12.50;99.90;;;;;;5005035;28;20436;-67
2021/08/17 00:04:04;;;;;;;13.52;2.97;;;12.40;99.90;;;;;;5004582;28;20030;-66
2021/08/17 00:06:30;;;;;;;11.60;2.58;;;12.40;99.90;;;;;;5004917;28;20041;-68
2021/08/17 00:08:56;;;;;;;6.30;2.10;;;12.40;99.90;;;;;;5004846;28;20128;-68
2021/08/17 00:11:21;;;;;;;11.43;3.40;;;12.50;99.90;;;;;;5012053;28;20053;-66
2021/08/17 00:13:47;;;;;;;8.23;2.60;;;12.50;99.90;;;;;;5003594;28;20030;-67
2021/08/17 00:16:14;;;;;;;9.57;2.63;;;12.60;99.90;;;;;;5005319;28;20551;-68
2021/08/17 00:18:40;;;;;;;10.75;2.70;;;12.60;99.90;;;;;;5001233;28;20037;-68
2021/08/17 00:21:05;;;;;;;8.02;2.45;;;12.60;99.90;;;;;;5006669;28;20540;-68
2021/08/17 00:23:31;;;;;;;8.63;2.50;;;12.50;99.90;;;;;;5006749;28;20040;-67
2021/08/17 00:25:56;;;;;;;10.80;2.70;;;12.40;99.90;;;;;;5005835;28;20034;-68
2021/08/17 00:28:22;;;;;;;8.25;2.05;;;12.30;99.90;;;;;;5009215;28;20025;-67
2021/08/17 00:30:48;;;;;;;13.05;2.63;;;12.30;99.90;;;;;;5000202;28;20478;-68
2021/08/17 00:33:13;;;;;;;12.18;2.85;;;12.20;99.90;;;;;;5006505;28;20024;-68
2021/08/17 00:35:39;;;;;;;8.15;2.22;;;12.20;99.90;;;;;;5012184;28;20057;-68
2021/08/17 00:38:05;;;;;;;9.05;1.95;;;12.10;99.90;;;;;;4989837;28;20033;-65
2021/08/17 00:40:35;;;;;;;9.73;2.85;;;12.10;99.90;;;;;;5008084;28;20034;-68
2021/08/17 00:43:01;;;;;;;13.32;2.30;;;12.10;99.90;;;;;;5007884;28;20029;-68
2021/08/17 00:45:30;;;;;;;14.00;2.17;;;12.10;99.90;;;;;;5012892;28;20296;-68
2021/08/17 00:47:57;;;;;;;15.38;2.80;;;12.10;99.90;;;;;;5009455;28;20093;-65
2021/08/17 00:50:27;;;;;;;10.18;3.22;;;12.00;99.90;;;;;;5008875;28;20133;-67
2021/08/17 00:52:57;;;;;;;15.43;2.83;;;12.00;99.90;;;;;;5008258;28;20231;-68
2021/08/17 00:55:23;;;;;;;8.93;2.05;;;12.10;99.90;;;;;;5011353;28;20033;-66
2021/08/17 00:57:49;;;;;;;14.73;2.75;;;12.00;99.90;;;;;;5007663;28;20042;-66
2021/08/17 01:00:16;;;;;;;11.75;2.83;;;12.00;99.90;;;;;;5006669;28;20572;-65
2021/08/17 01:02:42;;;;;;;7.85;2.45;;;12.10;99.90;;;;;;5006771;28;20022;-67
2021/08/17 01:05:09;;;;;;;12.95;2.60;;;12.00;99.90;;;;;;4984664;28;20022;-67
2021/08/17 01:07:35;;;;;;;11.98;3.28;;;12.00;99.90;;;;;;5008241;28;20362;-67
2021/08/17 01:10:03;;;;;;;8.57;3.40;;;12.00;99.90;;;;;;5009153;28;20014;-67
2021/08/17 01:12:29;;;;;;;10.45;2.97;;;12.10;99.90;;;;;;5004380;28;20025;-67
2021/08/17 01:14:54;;;;;;;10.45;3.50;;;12.00;99.90;;;;;;5004036;28;20030;-67
2021/08/17 01:17:20;;;;;;;6.22;2.20;;;12.10;99.90;;;;;;5007997;28;20081;-67
2021/08/17 01:19:46;;;;;;;8.05;2.80;;;12.10;99.90;;;;;;5003105;28;20371;-67
2021/08/17 01:22:12;;;;;;;10.20;3.10;;;12.10;99.90;;;;;;5008983;28;20041;-66
2021/08/17 01:24:38;;;;;;;10.95;2.95;;;12.10;99.90;;;;;;5006820;28;20030;-67
2021/08/17 01:27:04;;;;;;;9.80;2.63;;;12.00;99.90;;;;;;5005017;28;20022;-68
2021/08/17 01:29:29;;;;;;;12.68;3.45;;;12.00;99.90;;;;;;5008626;28;20053;-67
2021/08/17 01:31:57;;;;;;;12.02;3.30;;;12.00;99.90;;;;;;5007754;28;20049;-67
2021/08/17 01:34:23;;;;;;;13.10;3.20;;;12.10;99.90;;;;;;5008086;28;20022;-67
2021/08/17 01:36:48;;;;;;;10.95;3.45;;;12.00;99.90;;;;;;5007805;28;20038;-67
2021/08/17 01:39:15;;;;;;;8.30;2.88;;;12.00;99.90;;;;;;5007996;28;20037;-67
2021/08/17 01:41:41;;;;;;;9.95;3.33;;;12.20;99.90;;;;;;5008674;28;20046;-67
2021/08/17 01:44:12;;;;;;;8.93;2.70;;;12.20;99.90;;;;;;5009456;28;20022;-67
2021/08/17 01:46:40;;;;;;;14.48;3.92;;;12.20;99.90;;;;;;5006215;28;20053;-67
2021/08/17 01:49:06;;;;;;;13.10;3.80;;;12.20;99.90;;;;;;5000655;28;20042;-67
2021/08/17 01:51:32;;;;;;;9.02;3.40;;;12.10;99.90;;;;;;5007037;28;20065;-67
2021/08/17 01:53:58;;;;;;;14.55;4.05;;;12.20;99.90;;;;;;5002829;28;20060;-67
2021/08/17 01:56:23;;;;;;;12.45;3.90;;;12.20;99.90;;;;;;5007639;28;20150;-67
2021/08/17 01:58:49;;;;;;;15.45;4.15;;;12.20;99.90;;;;;;5007334;28;20592;-68
2021/08/17 02:01:15;;;;;;;12.20;3.95;;;12.20;99.90;;;;;;5007623;28;20156;-67
2021/08/17 02:03:41;;;;;;;8.25;3.15;;;12.20;99.90;;;;;;4987662;28;20517;-67
2021/08/17 02:06:08;;;;;;;12.32;2.90;;;12.20;99.90;;;;;;5003773;28;20033;-67
2021/08/17 02:08:35;;;;;;;17.95;3.53;;;12.20;99.90;;;;;;5006651;28;20076;-67
2021/08/17 02:11:01;;;;;;;14.05;3.90;;;12.20;99.90;;;;;;5007306;28;20022;-67
2021/08/17 02:13:28;;;;;;;10.77;4.43;;;12.10;99.90;;;;;;5008172;28;20034;-67
2021/08/17 02:15:55;;;;;;;14.27;3.13;;;12.10;99.90;;;;;;5002087;28;20768;-67
2021/08/17 02:18:21;;;;;;;12.75;3.22;;;12.10;99.90;;;;;;5006698;28;20367;-67
2021/08/17 02:20:47;;;;;;;15.98;5.18;;;12.10;99.90;;;;;;5012740;28;20060;-67
2021/08/17 02:23:13;;;;;;;15.25;3.80;;;12.10;99.90;;;;;;5006011;28;20036;-68
2021/08/17 02:25:39;;;;;;;11.05;3.75;;;12.00;99.90;;;;;;5004069;28;20462;-67
2021/08/17 02:28:05;;;;;;;13.52;4.43;;;12.00;99.90;;;;;;5007473;28;20469;-67
2021/08/17 02:30:30;;;;;;;10.90;4.38;;;12.00;99.90;;;;;;4988826;28;20037;-67
2021/08/17 02:32:56;;;;;;;14.68;5.03;;;12.00;99.90;;;;;;5005941;28;20041;-67
2021/08/17 02:35:22;;;;;;;17.30;4.65;;;11.90;99.90;;;;;;5007235;28;20018;-67
2021/08/17 02:37:47;;;;;;;22.30;8.90;;;11.90;99.90;;;;;;5005793;28;20489;-67
2021/08/17 02:40:13;;;;;;;19.40;5.50;;;11.90;99.90;;;;;;5006740;28;20519;-67
2021/08/17 02:42:39;;;;;;;14.98;5.65;;;11.90;99.90;;;;;;4988203;28;20057;-67
2021/08/17 02:45:06;;;;;;;19.85;5.88;;;11.80;99.90;;;;;;5005643;28;20041;-67
2021/08/17 02:47:33;;;;;;;15.05;4.03;;;11.80;99.90;;;;;;5003998;28;20030;-68
2021/08/17 02:49:59;;;;;;;15.73;4.35;;;11.80;99.90;;;;;;5005287;28;20037;-67
2021/08/17 02:52:24;;;;;;;20.40;5.38;;;11.70;99.90;;;;;;5007937;28;20029;-67
2021/08/17 02:54:50;;;;;;;18.90;6.68;;;11.70;99.90;;;;;;4984141;28;20128;-67
2021/08/17 02:57:18;;;;;;;31.17;7.03;;;11.70;99.90;;;;;;5004563;28;20033;-67
2021/08/17 02:59:44;;;;;;;16.73;5.78;;;11.70;99.90;;;;;;5006290;28;20084;-67
2021/08/17 03:02:11;;;;;;;26.38;7.63;;;11.70;99.90;;;;;;5001120;28;20026;-67
2021/08/17 03:04:37;;;;;;;22.10;7.68;;;11.70;99.90;;;;;;5004439;28;20030;-67
2021/08/17 03:07:04;;;;;;;28.95;7.47;;;11.70;99.90;;;;;;4981246;28;20037;-68
2021/08/17 03:09:30;;;;;;;18.63;6.68;;;11.70;99.90;;;;;;5010457;28;20033;-67
2021/08/17 03:11:55;;;;;;;27.33;9.05;;;11.70;99.90;;;;;;5002621;28;20033;-67
2021/08/17 03:14:21;;;;;;;31.20;9.65;;;11.60;99.90;;;;;;5005832;28;20022;-67
2021/08/17 03:16:47;;;;;;;24.67;7.78;;;11.60;99.90;;;;;;5005220;28;20049;-67
2021/08/17 03:19:12;;;;;;;27.70;9.63;;;11.60;99.90;;;;;;5005855;28;20053;-68
2021/08/17 03:21:38;;;;;;;22.20;6.53;;;11.50;99.90;;;;;;5010036;28;20099;-67
2021/08/17 03:24:04;;;;;;;21.75;7.53;;;11.60;99.90;;;;;;5006584;28;20026;-67
2021/08/17 03:26:29;;;;;;;36.38;10.57;;;11.60;99.90;;;;;;5006007;28;20026;-67
2021/08/17 03:28:55;;;;;;;34.95;11.70;;;11.50;99.90;;;;;;5005111;28;20029;-67
2021/08/17 03:31:21;;;;;;;44.13;12.55;;;11.40;99.90;;;;;;5004848;28;20022;-67
2021/08/17 03:33:46;;;;;;;28.08;10.10;;;11.50;99.90;;;;;;5006088;28;20061;-67
2021/08/17 03:36:12;;;;;;;35.10;12.35;;;11.40;99.90;;;;;;5006198;28;20034;-68
2021/08/17 03:38:38;;;;;;;36.80;11.63;;;12.20;99.90;;;;;;5005813;28;20073;-67
2021/08/17 03:41:04;;;;;;;36.10;11.82;;;11.40;99.90;;;;;;4987803;28;20177;-67
2021/08/17 03:43:31;;;;;;;43.55;11.50;;;11.30;99.90;;;;;;5006311;28;20025;-68
2021/08/17 03:45:56;;;;;;;47.85;12.20;;;11.30;99.90;;;;;;5005128;28;20033;-67
2021/08/17 03:48:22;;;;;;;50.75;14.45;;;11.40;99.90;;;;;;4988317;28;20029;-68
2021/08/17 03:50:48;;;;;;;41.75;12.02;;;11.40;99.90;;;;;;5010376;28;20030;-67
2021/08/17 03:53:13;;;;;;;42.10;12.80;;;11.50;99.90;;;;;;5006311;28;20026;-67
2021/08/17 03:55:39;;;;;;;46.78;14.77;;;11.40;99.90;;;;;;4987975;28;20556;-67
2021/08/17 03:58:05;;;;;;;34.10;11.77;;;11.50;99.90;;;;;;4994641;28;20477;-67
2021/08/17 04:00:34;;;;;;;47.33;14.35;;;11.50;99.90;;;;;;4992345;28;20037;-67
2021/08/17 04:03:00;;;;;;;46.97;13.38;;;11.50;99.90;;;;;;4992652;28;20391;-67
2021/08/17 04:05:26;;;;;;;46.60;13.80;;;11.50;99.90;;;;;;5006500;28;20048;-68
2021/08/17 04:07:52;;;;;;;43.72;13.27;;;11.50;99.90;;;;;;5003397;28;20088;-67
2021/08/17 04:10:18;;;;;;;50.65;14.55;;;11.50;99.90;;;;;;5006458;28;20026;-67
2021/08/17 04:12:44;;;;;;;43.25;12.60;;;11.50;99.90;;;;;;5001441;28;20453;-68
2021/08/17 04:15:10;;;;;;;34.92;10.27;;;11.60;99.90;;;;;;5005705;28;20022;-67
2021/08/17 04:17:37;;;;;;;31.45;12.02;;;11.60;99.90;;;;;;5001943;28;20046;-67
2021/08/17 04:20:05;;;;;;;51.95;14.75;;;11.70;99.90;;;;;;5008842;28;20050;-67
2021/08/17 04:22:30;;;;;;;50.38;14.50;;;11.60;99.90;;;;;;5008763;28;20089;-67
2021/08/17 04:24:56;;;;;;;40.83;11.55;;;11.40;99.90;;;;;;5004297;28;20769;-67
2021/08/17 04:27:21;;;;;;;37.33;10.05;;;11.60;99.90;;;;;;5002765;28;20030;-67
2021/08/17 04:29:48;;;;;;;45.38;14.05;;;11.70;99.90;;;;;;5003550;28;20072;-68
2021/08/17 04:32:13;;;;;;;49.05;14.77;;;11.60;99.90;;;;;;5003549;28;20117;-68
2021/08/17 04:34:39;;;;;;;45.90;13.52;;;11.70;99.90;;;;;;4999828;28;20488;-67
2021/08/17 04:37:05;;;;;;;50.80;14.55;;;11.70;99.90;;;;;;5003600;28;20235;-67
2021/08/17 04:39:31;;;;;;;42.65;11.45;;;11.80;99.90;;;;;;5004296;28;20572;-67
2021/08/17 04:41:56;;;;;;;45.65;11.05;;;11.80;99.90;;;;;;5005072;28;20022;-67
2021/08/17 04:44:22;;;;;;;47.22;13.75;;;11.80;99.90;;;;;;5004147;28;20109;-67
2021/08/17 04:46:48;;;;;;;40.53;11.38;;;11.80;99.90;;;;;;5003498;28;20490;-66
2021/08/17 04:49:13;;;;;;;47.28;13.77;;;11.90;99.90;;;;;;5002506;28;20034;-67
2021/08/17 04:51:41;;;;;;;41.95;14.18;;;11.90;99.90;;;;;;4992846;28;20104;-67
2021/08/17 04:54:07;;;;;;;43.65;12.90;;;11.90;99.90;;;;;;5003605;28;20093;-68
2021/08/17 04:56:33;;;;;;;53.55;23.30;;;11.90;99.90;;;;;;5004180;28;20857;-67
2021/08/17 04:58:58;;;;;;;45.22;16.00;;;11.90;99.90;;;;;;5004427;28;20033;-67
2021/08/17 05:01:24;;;;;;;50.45;15.55;;;12.00;99.90;;;;;;5003251;28;20109;-66
2021/08/17 05:03:49;;;;;;;41.50;12.98;;;12.00;99.90;;;;;;5001203;28;20030;-67
2021/08/17 05:06:15;;;;;;;44.97;13.55;;;12.10;99.90;;;;;;5001984;28;20402;-68
2021/08/17 05:08:41;;;;;;;52.25;15.55;;;12.10;99.90;;;;;;5002330;28;20041;-68
2021/08/17 05:11:07;;;;;;;49.17;14.13;;;12.20;99.90;;;;;;5003932;28;20083;-68
2021/08/17 05:13:33;;;;;;;45.15;13.98;;;12.20;99.90;;;;;;5008006;28;20038;-67
2021/08/17 05:15:58;;;;;;;42.67;13.48;;;12.30;99.90;;;;;;5003430;28;20038;-68
2021/08/17 05:18:24;;;;;;;31.73;8.18;;;12.40;99.90;;;;;;5006563;28;20079;-67
2021/08/17 05:20:50;;;;;;;35.65;12.13;;;12.50;99.90;;;;;;5005824;28;20061;-68
2021/08/17 05:23:16;;;;;;;26.92;10.52;;;12.60;99.90;;;;;;5010492;28;20052;-67
2021/08/17 05:25:41;;;;;;;46.30;12.80;;;12.70;99.90;;;;;;4991937;28;20018;-68
2021/08/17 05:28:07;;;;;;;38.95;12.75;;;12.90;99.90;;;;;;5002251;28;20030;-67
2021/08/17 05:30:33;;;;;;;31.40;12.13;;;13.00;99.90;;;;;;5007806;28;20112;-68
2021/08/17 05:32:59;;;;;;;32.78;10.40;;;13.00;99.90;;;;;;5006030;28;20022;-68
2021/08/17 05:35:24;;;;;;;34.53;11.30;;;13.20;99.90;;;;;;5006088;28;20425;-67
2021/08/17 05:37:50;;;;;;;39.47;12.75;;;13.30;99.90;;;;;;4987845;28;20072;-67
2021/08/17 05:40:16;;;;;;;33.55;12.50;;;13.30;99.90;;;;;;5007774;28;20465;-67
2021/08/17 05:42:41;;;;;;;32.40;9.48;;;13.40;99.90;;;;;;5007440;28;20041;-67
2021/08/17 05:45:08;;;;;;;35.08;11.50;;;13.60;99.90;;;;;;4993923;28;20030;-68
2021/08/17 05:47:34;;;;;;;32.33;10.57;;;13.70;99.90;;;;;;5005282;28;20069;-68
2021/08/17 05:50:00;;;;;;;25.48;8.50;;;13.80;99.90;;;;;;5004775;28;20022;-68
2021/08/17 05:52:25;;;;;;;26.23;9.43;;;13.90;99.90;;;;;;5012035;28;20037;-67
2021/08/17 05:54:51;;;;;;;27.92;10.45;;;13.90;99.90;;;;;;5006202;28;20044;-68
2021/08/17 05:57:18;;;;;;;28.13;8.98;;;13.90;99.90;;;;;;5007363;28;20083;-67
2021/08/17 05:59:44;;;;;;;27.92;9.68;;;13.90;99.90;;;;;;5008171;28;20022;-67
2021/08/17 06:02:11;;;;;;;33.83;11.43;;;13.70;99.90;;;;;;5006399;28;20371;-67
2021/08/17 06:04:36;;;;;;;23.20;6.45;;;13.70;99.90;;;;;;4994829;28;20063;-67
2021/08/17 06:07:02;;;;;;;33.35;10.80;;;13.70;99.90;;;;;;4989806;28;20121;-67
2021/08/17 06:09:28;;;;;;;33.40;14.80;;;13.70;99.90;;;;;;5007244;28;20393;-67
2021/08/17 06:11:57;;;;;;;24.42;8.40;;;13.80;99.90;;;;;;5006742;28;20037;-68
2021/08/17 06:14:23;;;;;;;26.08;9.00;;;13.90;99.90;;;;;;5007286;28;20025;-67
2021/08/17 06:16:49;;;;;;;30.55;12.85;;;14.00;99.90;;;;;;5007515;28;20033;-67
2021/08/17 06:19:15;;;;;;;22.58;6.90;;;14.10;99.90;;;;;;5002320;28;20021;-67
2021/08/17 06:21:40;;;;;;;21.58;8.13;;;14.20;99.90;;;;;;5004663;28;20048;-67
2021/08/17 06:24:06;;;;;;;21.48;9.02;;;14.30;99.90;;;;;;5001587;28;20049;-68
2021/08/17 06:26:33;;;;;;;27.60;9.20;;;14.30;99.90;;;;;;5003981;28;20120;-68
2021/08/17 06:28:58;;;;;;;25.63;9.80;;;14.50;99.90;;;;;;5002936;28;20037;-67
2021/08/17 06:31:24;;;;;;;26.67;7.65;;;14.60;99.90;;;;;;5006032;28;20021;-67
2021/08/17 06:33:51;;;;;;;20.67;6.55;;;14.60;99.90;;;;;;5007261;28;20103;-68
2021/08/17 06:36:20;;;;;;;21.00;7.35;;;14.70;99.90;;;;;;5003817;28;20026;-67
2021/08/17 06:38:45;;;;;;;30.60;10.40;;;14.70;99.90;;;;;;5000513;28;20034;-67
2021/08/17 06:41:11;;;;;;;22.27;8.20;;;14.80;99.90;;;;;;4991045;28;20017;-67
2021/08/17 06:43:37;;;;;;;25.20;10.52;;;14.80;99.90;;;;;;5004243;28;20058;-67
2021/08/17 06:46:03;;;;;;;21.90;8.55;;;14.80;99.90;;;;;;5006143;28;20113;-67
2021/08/17 06:48:29;;;;;;;24.27;10.43;;;14.70;99.90;;;;;;5007730;28;20029;-67
2021/08/17 06:50:54;;;;;;;35.83;11.85;;;14.70;99.90;;;;;;5009423;28;20478;-67
2021/08/17 06:53:20;;;;;;;24.02;9.55;;;14.80;99.90;;;;;;5006776;28;20025;-67
2021/08/17 06:55:46;;;;;;;27.13;8.27;;;14.80;99.90;;;;;;5006575;28;20041;-67
2021/08/17 06:58:13;;;;;;;29.40;10.25;;;14.90;99.90;;;;;;5006872;28;20462;-67
2021/08/17 07:00:40;;;;;;;33.03;11.32;;;14.90;99.90;;;;;;5006747;28;20018;-68
2021/08/17 07:03:07;;;;;;;33.80;14.13;;;15.00;99.90;;;;;;5002271;28;20120;-67
2021/08/17 07:05:40;;;;;;;30.88;9.55;;;15.10;99.90;;;;;;5005700;28;20053;-67
2021/08/17 07:08:07;;;;;;;31.13;11.93;;;15.20;99.90;;;;;;5004450;28;20377;-67
2021/08/17 07:10:38;;;;;;;26.15;11.05;;;15.60;99.90;;;;;;5003634;28;20093;-67
2021/08/17 07:13:04;;;;;;;24.65;8.48;;;16.30;99.90;;;;;;4988674;28;20021;-67
2021/08/17 07:15:30;;;;;;;25.88;10.07;;;15.70;99.90;;;;;;5007987;28;20041;-67
2021/08/17 07:17:56;;;;;;;34.80;10.55;;;15.80;99.90;;;;;;5005621;28;20092;-67
2021/08/17 07:20:22;;;;;;;21.92;10.25;;;16.00;99.90;;;;;;4990663;28;20053;-67
2021/08/17 07:22:47;;;;;;;27.10;11.27;;;16.00;99.90;;;;;;4989263;28;20030;-66
2021/08/17 07:25:13;;;;;;;32.95;13.77;;;16.30;99.90;;;;;;5005142;28;20382;-67
2021/08/17 07:27:40;;;;;;;23.08;7.97;;;16.40;99.90;;;;;;5004136;28;20038;-67
2021/08/17 07:30:07;;;;;;;29.08;9.48;;;16.70;99.90;;;;;;5004550;28;20024;-67
2021/08/17 07:32:34;;;;;;;28.30;11.95;;;16.40;99.90;;;;;;5006416;28;20497;-67
2021/08/17 07:34:59;;;;;;;27.00;10.95;;;16.40;99.90;;;;;;5005467;28;20025;-67
2021/08/17 07:37:25;;;;;;;26.48;11.45;;;16.60;99.90;;;;;;5006497;28;20038;-67
2021/08/17 07:39:51;;;;;;;27.35;11.93;;;16.70;99.90;;;;;;5006118;28;20603;-68
2021/08/17 07:42:17;;;;;;;28.88;11.40;;;16.60;99.90;;;;;;5006299;28;20046;-67
2021/08/17 07:44:42;;;;;;;27.80;10.90;;;16.60;99.90;;;;;;5006316;28;20088;-67
2021/08/17 07:47:08;;;;;;;32.38;11.55;;;16.50;99.90;;;;;;5007195;28;20030;-67
2021/08/17 07:49:34;;;;;;;29.85;11.65;;;16.60;99.90;;;;;;5005649;28;20044;-67
2021/08/17 07:51:59;;;;;;;26.77;10.90;;;16.90;99.90;;;;;;5005672;28;20077;-67
2021/08/17 07:54:27;;;;;;;23.90;9.77;;;16.80;99.90;;;;;;5006536;28;20257;-67
2021/08/17 07:56:53;;;;;;;21.30;9.45;;;16.90;99.90;;;;;;4988309;28;20088;-67
2021/08/17 07:59:19;;;;;;;30.05;11.27;;;16.80;99.90;;;;;;4998715;28;20481;-67
2021/08/17 08:01:44;;;;;;;28.67;11.93;;;17.10;99.90;;;;;;5006048;28;20117;-67
2021/08/17 08:04:10;;;;;;;26.35;9.95;;;17.10;99.90;;;;;;5006409;28;20026;-67
2021/08/17 08:06:35;;;;;;;28.27;11.57;;;17.00;99.90;;;;;;5006347;28;20460;-67
2021/08/17 08:09:03;;;;;;;34.88;13.63;;;16.40;99.90;;;;;;5005808;28;20026;-67
2021/08/17 08:11:29;;;;;;;36.17;12.98;;;16.50;99.90;;;;;;5006551;28;20481;-67
2021/08/17 08:13:56;;;;;;;28.70;12.38;;;16.60;99.90;;;;;;5005737;28;20194;-67
2021/08/17 08:16:22;;;;;;;30.50;13.15;;;16.50;99.90;;;;;;5005239;28;20501;-67
2021/08/17 08:18:48;;;;;;;32.33;12.52;;;16.50;99.90;;;;;;5005283;28;20034;-66
2021/08/17 08:21:13;;;;;;;34.13;11.65;;;16.50;99.90;;;;;;5005407;28;20042;-67
2021/08/17 08:23:39;;;;;;;23.10;9.00;;;16.50;99.90;;;;;;5006951;28;20428;-67
2021/08/17 08:26:05;;;;;;;32.83;12.90;;;16.50;99.90;;;;;;4988424;28;20034;-67
2021/08/17 08:28:30;;;;;;;43.20;21.02;;;16.50;99.90;;;;;;5005514;28;20152;-67
2021/08/17 08:30:56;;;;;;;22.80;8.23;;;16.20;99.90;;;;;;5008127;28;20056;-67
2021/08/17 08:33:21;;;;;;;39.08;14.32;;;16.30;99.90;;;;;;5001970;28;20038;-66
2021/08/17 08:35:47;;;;;;;31.15;12.85;;;16.60;99.90;;;;;;5003909;28;20034;-67
2021/08/17 08:38:12;;;;;;;35.97;14.25;;;17.40;99.90;;;;;;4989127;28;20056;-67
2021/08/17 08:40:38;;;;;;;24.15;10.15;;;17.60;99.90;;;;;;5005980;28;20029;-67
2021/08/17 08:43:04;;;;;;;28.02;13.10;;;18.00;99.90;;;;;;5006970;28;20034;-67
2021/08/17 08:45:31;;;;;;;28.35;10.48;;;18.40;99.90;;;;;;5008462;28;20093;-66
2021/08/17 08:47:57;;;;;;;32.22;12.15;;;18.30;99.90;;;;;;5008411;28;20425;-66
2021/08/17 08:50:23;;;;;;;28.30;11.07;;;18.00;99.90;;;;;;4996234;28;20335;-67
2021/08/17 08:52:49;;;;;;;28.80;10.57;;;17.80;99.90;;;;;;5010670;28;20030;-67
2021/08/17 08:55:14;;;;;;;30.60;12.30;;;17.50;99.90;;;;;;5010066;28;20041;-66
2021/08/17 08:57:41;;;;;;;21.75;8.77;;;17.40;99.90;;;;;;5012081;28;20172;-67
2021/08/17 09:00:09;;;;;;;17.98;6.55;;;17.80;99.90;;;;;;5009761;28;20128;-66
2021/08/17 09:02:35;;;;;;;23.75;10.90;;;17.80;99.90;;;;;;5005938;28;20066;-66
2021/08/17 09:05:02;;;;;;;29.38;11.13;;;17.90;99.90;;;;;;5008584;28;20057;-67
2021/08/17 09:07:34;;;;;;;33.10;12.07;;;17.90;99.90;;;;;;5012219;28;20017;-66
2021/08/17 09:10:20;;;;;;;23.83;11.15;;;17.80;99.90;;;;;;4987652;28;20018;-66
2021/08/17 09:12:57;;;;;;;23.42;9.32;;;17.80;99.90;;;;;;5008137;28;20114;-67
2021/08/17 09:15:28;;;;;;;23.48;9.68;;;17.80;99.90;;;;;;5012655;28;20050;-66
2021/08/17 09:18:04;;;;;;;20.13;7.63;;;17.90;99.90;;;;;;5004172;28;20120;-68
2021/08/17 09:20:33;;;;;;;22.05;8.70;;;17.70;99.90;;;;;;5006926;28;20367;-67
2021/08/17 09:23:29;;;;;;;24.77;10.25;;;17.60;99.90;;;;;;5004163;28;20075;-67
2021/08/17 09:26:00;;;;;;;21.33;8.30;;;17.40;99.90;;;;;;5001551;28;20496;-67
2021/08/17 09:28:35;;;;;;;20.70;8.95;;;17.30;99.90;;;;;;5008688;28;20096;-67
2021/08/17 09:31:04;;;;;;;24.25;10.02;;;17.50;99.90;;;;;;4997275;28;20026;-66
2021/08/17 09:33:35;;;;;;;24.58;9.07;;;17.30;99.90;;;;;;5009038;28;20179;-67
2021/08/17 09:36:01;;;;;;;25.73;9.38;;;17.50;99.90;;;;;;5013164;28;20030;-67
2021/08/17 09:38:31;;;;;;;23.38;8.93;;;17.60;99.90;;;;;;5003716;28;20425;-67
2021/08/17 09:40:57;;;;;;;24.00;9.57;;;17.30;99.90;;;;;;4996525;28;20018;-67
2021/08/17 09:43:24;;;;;;;18.15;9.55;;;17.30;99.90;;;;;;5000425;28;20033;-67
2021/08/17 09:45:50;;;;;;;24.95;8.07;;;17.10;99.90;;;;;;5008722;28;20052;-67
2021/08/17 09:48:26;;;;;;;21.33;9.50;;;17.30;99.90;;;;;;5008354;28;20038;-66
2021/08/17 09:50:52;;;;;;;23.33;8.55;;;17.70;99.90;;;;;;5006486;28;20033;-67
2021/08/17 09:53:20;;;;;;;22.45;9.18;;;18.30;99.90;;;;;;5008261;28;20334;-66
2021/08/17 09:55:49;;;;;;;23.08;9.13;;;18.50;99.90;;;;;;5003151;28;20110;-66
2021/08/17 09:58:37;;;;;;;24.08;10.00;;;18.30;99.90;;;;;;5003370;28;20457;-67
2021/08/17 10:01:10;;;;;;;19.17;8.55;;;18.40;99.90;;;;;;5007973;28;20072;-67
2021/08/17 10:03:36;;;;;;;26.45;9.10;;;18.70;99.90;;;;;;5011412;28;20080;-67
2021/08/17 10:06:03;;;;;;;22.50;9.50;;;18.40;99.90;;;;;;5005414;28;20033;-67
2021/08/17 10:08:33;;;;;;;18.20;8.13;;;18.00;99.90;;;;;;5010984;28;20040;-67
2021/08/17 10:11:00;;;;;;;23.15;8.77;;;17.60;99.90;;;;;;5006982;28;20491;-67
2021/08/17 10:13:28;;;;;;;21.95;10.10;;;17.30;99.90;;;;;;5002339;28;20110;-66
2021/08/17 10:15:54;;;;;;;20.83;7.20;;;17.40;99.90;;;;;;5006761;28;20080;-67
2021/08/17 10:18:25;;;;;;;21.58;7.93;;;17.60;99.90;;;;;;4995811;28;20385;-67
2021/08/17 10:20:54;;;;;;;15.65;7.05;;;17.70;99.90;;;;;;5006155;28;20054;-67
2021/08/17 10:23:21;;;;;;;22.02;9.48;;;18.00;99.90;;;;;;5008183;28;20046;-67
2021/08/17 10:25:58;;;;;;;21.58;10.43;;;18.10;99.90;;;;;;5011836;28;20084;-67
2021/08/17 10:28:40;;;;;;;19.23;7.90;;;18.30;99.90;;;;;;5007263;28;20510;-67
2021/08/17 10:31:12;;;;;;;17.75;7.05;;;17.60;99.90;;;;;;5012073;28;20034;-67
2021/08/17 10:33:53;;;;;;;18.85;7.13;;;18.00;99.90;;;;;;5008212;28;20032;-67
2021/08/17 10:36:44;;;;;;;20.80;8.88;;;18.20;99.90;;;;;;5005615;28;20034;-67
2021/08/17 10:39:18;;;;;;;20.38;8.48;;;18.40;99.90;;;;;;4999889;28;20026;-66
2021/08/17 10:41:51;;;;;;;27.23;14.50;;;18.10;99.90;;;;;;5006573;28;20025;-67
2021/08/17 10:44:21;;;;;;;16.70;5.95;;;17.70;99.90;;;;;;4993815;28;20018;-67
2021/08/17 10:46:57;;;;;;;20.23;7.75;;;17.50;99.90;;;;;;5009247;28;20362;-66
2021/08/17 10:49:23;;;;;;;19.88;7.55;;;17.60;99.90;;;;;;5006859;28;20152;-67
2021/08/17 10:51:50;;;;;;;18.98;7.80;;;17.70;99.90;;;;;;5006767;28;20097;-67
2021/08/17 10:54:16;;;;;;;16.85;7.40;;;17.80;99.90;;;;;;5006923;28;20038;-67
2021/08/17 10:56:43;;;;;;;15.77;7.07;;;17.50;99.90;;;;;;4995269;28;20044;-67
2021/08/17 10:59:08;;;;;;;18.50;7.32;;;17.40;99.90;;;;;;5007324;28;20378;-67
2021/08/17 11:01:47;;;;;;;20.67;7.28;;;17.70;99.90;;;;;;5008021;28;20033;-67
2021/08/17 11:04:13;;;;;;;19.42;7.95;;;18.10;99.90;;;;;;4998662;28;20501;-67
2021/08/17 11:06:38;;;;;;;14.15;7.45;;;17.90;99.90;;;;;;5004946;28;20080;-67
2021/08/17 11:09:09;;;;;;;16.90;6.95;;;17.90;99.90;;;;;;5006416;28;20109;-67
2021/08/17 11:11:36;;;;;;;18.05;6.25;;;17.60;99.90;;;;;;5006995;28;20390;-67
2021/08/17 11:14:05;;;;;;;15.80;6.10;;;17.70;99.90;;;;;;5005828;28;20022;-67
2021/08/17 11:16:32;;;;;;;15.43;7.10;;;17.60;99.90;;;;;;5005683;28;20048;-67
2021/08/17 11:19:03;;;;;;;22.15;6.63;;;17.50;99.90;;;;;;4989758;28;20273;-67
2021/08/17 11:21:29;;;;;;;10.43;4.15;;;17.20;99.90;;;;;;5006686;28;20030;-67
2021/08/17 11:24:14;;;;;;;17.40;7.20;;;17.70;99.90;;;;;;5005827;28;20044;-66
2021/08/17 11:26:43;;;;;;;15.88;6.53;;;17.70;99.90;;;;;;5005016;28;20022;-66
2021/08/17 11:29:15;;;;;;;15.77;6.72;;;18.00;99.90;;;;;;5004840;28;20022;-67
2021/08/17 11:31:45;;;;;;;12.48;6.47;;;17.60;99.90;;;;;;5005311;28;20391;-66
2021/08/17 11:34:13;;;;;;;16.15;6.22;;;17.50;99.90;;;;;;4998328;28;20030;-66
2021/08/17 11:36:39;;;;;;;13.93;5.80;;;17.40;99.90;;;;;;5005065;28;20033;-67
2021/08/17 11:39:27;;;;;;;17.98;8.38;;;17.50;99.90;;;;;;5006523;28;20022;-66
2021/08/17 11:41:53;;;;;;;13.82;6.03;;;17.60;99.90;;;;;;5002914;28;20018;-66
2021/08/17 11:44:19;;;;;;;17.58;7.03;;;17.70;99.90;;;;;;5008966;28;20045;-67
2021/08/17 11:46:46;;;;;;;13.77;5.90;;;18.00;99.90;;;;;;4989632;28;20373;-66
2021/08/17 11:49:21;;;;;;;18.58;7.05;;;18.00;99.90;;;;;;5003441;28;20137;-67
2021/08/17 11:51:56;;;;;;;18.02;6.18;;;17.80;99.90;;;;;;5005231;28;20029;-67
2021/08/17 11:54:22;;;;;;;22.42;7.13;;;17.70;99.90;;;;;;5005080;28;20030;-66
2021/08/17 11:56:47;;;;;;;14.07;5.57;;;17.80;99.90;;;;;;5001875;28;20030;-67
2021/08/17 11:59:13;;;;;;;14.98;6.65;;;17.80;99.90;;;;;;5005637;28;20044;-66
2021/08/17 12:01:38;;;;;;;17.33;6.82;;;18.00;99.90;;;;;;5003075;28;20025;-67
2021/08/17 12:04:08;;;;;;;15.63;6.20;;;18.40;99.90;;;;;;5004246;28;20490;-67
2021/08/17 12:06:35;;;;;;;17.15;6.55;;;18.40;99.90;;;;;;5000210;28;20502;-67
2021/08/17 12:09:18;;;;;;;12.93;4.80;;;18.80;99.90;;;;;;5004426;28;20033;-67
2021/08/17 12:11:57;;;;;;;13.40;4.47;;;18.70;99.90;;;;;;5002631;28;20022;-67
2021/08/17 12:14:23;;;;;;;13.05;5.93;;;18.40;99.90;;;;;;5006025;28;20022;-67
2021/08/17 12:16:53;;;;;;;18.13;6.57;;;18.00;99.90;;;;;;5001280;28;20060;-67
2021/08/17 12:19:19;;;;;;;15.15;5.80;;;18.20;99.90;;;;;;4999245;28;20065;-66
2021/08/17 12:21:46;;;;;;;15.10;5.95;;;17.80;99.90;;;;;;5007786;28;20065;-67
2021/08/17 12:24:33;;;;;;;18.33;6.55;;;17.80;99.90;;;;;;5003049;28;20021;-67
2021/08/17 12:27:02;;;;;;;16.58;6.20;;;17.60;99.90;;;;;;5008462;28;20040;-67
2021/08/17 12:29:42;;;;;;;16.13;6.18;;;17.40;99.90;;;;;;5009599;28;20022;-67
2021/08/17 12:32:28;;;;;;;12.35;5.18;;;17.60;99.90;;;;;;4985269;28;20123;-67
2021/08/17 12:35:02;;;;;;;14.77;5.95;;;17.60;99.90;;;;;;5005816;28;20397;-67